KDYB

Summerville Airport

Summerville, South Carolina, USA
METAR KDYB 180255Z AUTO 00000KT 10SM OVC070 13/08 A3021 RMK AO1
Observed Flight Rules
Dec-18 @ 02:55 UTC (21 minutes ago) Visual Flight Rules
Wind Visibility Clouds
Calm 10 miles
  • Overcast at 7,000' AGL
Temperatures Readings
Current 13°C / 55°F
Dewpoint 8°C / 46°F
Humidity 72%
Altimeter 30.21" Hg
Pressure 1023 hPa
Elevation 18
METAR KDYB 180255Z AUTO 00000KT 10SM OVC070 13/08 A3021 RMK AO1
Observed Flight Rules
Dec-18 @ 02:55 UTC
(21 minutes ago)
VFR
Wind Visibility
Calm 10 miles
Clouds
  • Overcast at 7,000' AGL
Temperature Dewpoint
13°C / 55°F 8°C / 46°F
Humidity Altimeter Pressure
72% 30.21" Hg 1023 hPa